sensor_id;sensor_type;location;lat;lon;timestamp;P1;durP1;ratioP1;P2;durP2;ratioP2
19891;SDS011;10108;50.142;8.724;2023-02-22T00:01:12;18.10;;;11.65;;
19891;SDS011;10108;50.142;8.724;2023-02-22T00:03:53;18.05;;;11.70;;
19891;SDS011;10108;50.142;8.724;2023-02-22T00:06:20;18.27;;;11.57;;
19891;SDS011;10108;50.142;8.724;2023-02-22T00:08:49;18.23;;;11.38;;
19891;SDS011;10108;50.142;8.724;2023-02-22T00:11:17;20.20;;;12.10;;
19891;SDS011;10108;50.142;8.724;2023-02-22T00:13:45;18.30;;;11.40;;
19891;SDS011;10108;50.142;8.724;2023-02-22T00:16:15;22.00;;;12.32;;
19891;SDS011;10108;50.142;8.724;2023-02-22T00:18:46;18.85;;;12.52;;
19891;SDS011;10108;50.142;8.724;2023-02-22T00:21:13;19.23;;;12.43;;
19891;SDS011;10108;50.142;8.724;2023-02-22T00:23:41;19.13;;;11.45;;
19891;SDS011;10108;50.142;8.724;2023-02-22T00:26:13;21.88;;;12.30;;
19891;SDS011;10108;50.142;8.724;2023-02-22T00:28:47;19.63;;;12.27;;
19891;SDS011;10108;50.142;8.724;2023-02-22T00:31:17;19.05;;;11.85;;
19891;SDS011;10108;50.142;8.724;2023-02-22T00:33:44;19.27;;;12.07;;
19891;SDS011;10108;50.142;8.724;2023-02-22T00:36:11;20.08;;;12.35;;
19891;SDS011;10108;50.142;8.724;2023-02-22T00:38:39;17.70;;;12.15;;
19891;SDS011;10108;50.142;8.724;2023-02-22T00:41:07;20.55;;;12.43;;
19891;SDS011;10108;50.142;8.724;2023-02-22T00:43:33;19.63;;;12.15;;
19891;SDS011;10108;50.142;8.724;2023-02-22T00:46:00;18.30;;;12.20;;
19891;SDS011;10108;50.142;8.724;2023-02-22T00:48:26;18.15;;;11.68;;
19891;SDS011;10108;50.142;8.724;2023-02-22T00:50:53;19.52;;;11.77;;
19891;SDS011;10108;50.142;8.724;2023-02-22T00:53:20;19.05;;;11.95;;
19891;SDS011;10108;50.142;8.724;2023-02-22T00:55:47;20.80;;;12.45;;
19891;SDS011;10108;50.142;8.724;2023-02-22T00:58:14;21.17;;;12.57;;
19891;SDS011;10108;50.142;8.724;2023-02-22T01:00:40;17.95;;;12.07;;
19891;SDS011;10108;50.142;8.724;2023-02-22T01:03:08;17.92;;;11.65;;
19891;SDS011;10108;50.142;8.724;2023-02-22T01:05:36;20.02;;;12.10;;
19891;SDS011;10108;50.142;8.724;2023-02-22T01:08:06;17.65;;;11.60;;
19891;SDS011;10108;50.142;8.724;2023-02-22T01:10:33;20.33;;;11.70;;
19891;SDS011;10108;50.142;8.724;2023-02-22T01:13:01;17.60;;;12.20;;
19891;SDS011;10108;50.142;8.724;2023-02-22T01:15:33;18.65;;;10.98;;
19891;SDS011;10108;50.142;8.724;2023-02-22T01:18:01;18.38;;;11.68;;
19891;SDS011;10108;50.142;8.724;2023-02-22T01:20:27;20.38;;;12.13;;
19891;SDS011;10108;50.142;8.724;2023-02-22T01:22:54;18.67;;;12.35;;
19891;SDS011;10108;50.142;8.724;2023-02-22T01:25:23;20.35;;;11.30;;
19891;SDS011;10108;50.142;8.724;2023-02-22T01:27:51;21.88;;;11.98;;
19891;SDS011;10108;50.142;8.724;2023-02-22T01:30:25;18.33;;;10.77;;
19891;SDS011;10108;50.142;8.724;2023-02-22T01:32:57;16.33;;;11.18;;
19891;SDS011;10108;50.142;8.724;2023-02-22T01:35:26;17.52;;;11.18;;
19891;SDS011;10108;50.142;8.724;2023-02-22T01:37:54;17.70;;;11.55;;
19891;SDS011;10108;50.142;8.724;2023-02-22T01:40:23;17.77;;;11.52;;
19891;SDS011;10108;50.142;8.724;2023-02-22T01:42:52;17.02;;;11.73;;
19891;SDS011;10108;50.142;8.724;2023-02-22T01:50:38;20.42;;;11.77;;
19891;SDS011;10108;50.142;8.724;2023-02-22T01:53:08;18.33;;;11.20;;
19891;SDS011;10108;50.142;8.724;2023-02-22T01:55:38;19.80;;;11.13;;
19891;SDS011;10108;50.142;8.724;2023-02-22T01:58:04;15.48;;;11.27;;
19891;SDS011;10108;50.142;8.724;2023-02-22T02:00:33;20.60;;;12.05;;
19891;SDS011;10108;50.142;8.724;2023-02-22T02:03:13;19.88;;;11.30;;
19891;SDS011;10108;50.142;8.724;2023-02-22T02:05:46;16.67;;;11.95;;
19891;SDS011;10108;50.142;8.724;2023-02-22T02:11:02;17.42;;;11.65;;
19891;SDS011;10108;50.142;8.724;2023-02-22T02:13:30;16.45;;;10.93;;
19891;SDS011;10108;50.142;8.724;2023-02-22T02:15:56;16.40;;;10.70;;
19891;SDS011;10108;50.142;8.724;2023-02-22T02:18:23;18.35;;;11.23;;
19891;SDS011;10108;50.142;8.724;2023-02-22T02:40:14;17.17;;;11.27;;
19891;SDS011;10108;50.142;8.724;2023-02-22T02:42:58;19.23;;;10.95;;
19891;SDS011;10108;50.142;8.724;2023-02-22T02:45:50;16.90;;;10.63;;
19891;SDS011;10108;50.142;8.724;2023-02-22T02:48:27;16.00;;;11.13;;
19891;SDS011;10108;50.142;8.724;2023-02-22T02:50:56;17.83;;;11.30;;
19891;SDS011;10108;50.142;8.724;2023-02-22T02:53:31;19.63;;;11.82;;
19891;SDS011;10108;50.142;8.724;2023-02-22T02:56:00;18.13;;;11.10;;
19891;SDS011;10108;50.142;8.724;2023-02-22T02:58:28;15.93;;;10.18;;
19891;SDS011;10108;50.142;8.724;2023-02-22T03:00:56;19.35;;;11.05;;
19891;SDS011;10108;50.142;8.724;2023-02-22T03:06:19;16.42;;;10.50;;
19891;SDS011;10108;50.142;8.724;2023-02-22T03:11:42;16.60;;;10.55;;
19891;SDS011;10108;50.142;8.724;2023-02-22T03:14:15;17.17;;;11.27;;
19891;SDS011;10108;50.142;8.724;2023-02-22T03:19:54;16.63;;;11.18;;
19891;SDS011;10108;50.142;8.724;2023-02-22T03:22:27;16.73;;;10.50;;
19891;SDS011;10108;50.142;8.724;2023-02-22T03:25:14;14.90;;;10.82;;
19891;SDS011;10108;50.142;8.724;2023-02-22T03:27:51;18.00;;;11.10;;
19891;SDS011;10108;50.142;8.724;2023-02-22T03:30:31;16.55;;;11.00;;
19891;SDS011;10108;50.142;8.724;2023-02-22T03:33:04;15.35;;;10.57;;
19891;SDS011;10108;50.142;8.724;2023-02-22T03:35:40;14.88;;;10.00;;
19891;SDS011;10108;50.142;8.724;2023-02-22T03:38:14;14.65;;;10.60;;
19891;SDS011;10108;50.142;8.724;2023-02-22T03:40:46;15.48;;;10.85;;
19891;SDS011;10108;50.142;8.724;2023-02-22T03:43:18;16.98;;;11.23;;
19891;SDS011;10108;50.142;8.724;2023-02-22T03:45:50;15.38;;;10.95;;
19891;SDS011;10108;50.142;8.724;2023-02-22T03:48:21;15.63;;;10.77;;
19891;SDS011;10108;50.142;8.724;2023-02-22T03:50:51;16.05;;;10.43;;
19891;SDS011;10108;50.142;8.724;2023-02-22T03:53:19;16.42;;;10.98;;
19891;SDS011;10108;50.142;8.724;2023-02-22T03:55:48;16.33;;;10.95;;
19891;SDS011;10108;50.142;8.724;2023-02-22T03:58:16;16.83;;;10.77;;
19891;SDS011;10108;50.142;8.724;2023-02-22T04:00:46;16.33;;;10.63;;
19891;SDS011;10108;50.142;8.724;2023-02-22T04:03:20;16.27;;;11.20;;
19891;SDS011;10108;50.142;8.724;2023-02-22T04:05:48;15.90;;;10.95;;
19891;SDS011;10108;50.142;8.724;2023-02-22T04:08:15;15.63;;;10.93;;
19891;SDS011;10108;50.142;8.724;2023-02-22T04:10:41;15.38;;;10.55;;
19891;SDS011;10108;50.142;8.724;2023-02-22T04:13:08;17.33;;;10.98;;
19891;SDS011;10108;50.142;8.724;2023-02-22T04:15:37;16.42;;;10.70;;
19891;SDS011;10108;50.142;8.724;2023-02-22T04:18:05;17.90;;;11.05;;
19891;SDS011;10108;50.142;8.724;2023-02-22T04:20:32;16.92;;;10.55;;
19891;SDS011;10108;50.142;8.724;2023-02-22T04:23:07;15.68;;;10.63;;
19891;SDS011;10108;50.142;8.724;2023-02-22T04:25:36;17.45;;;12.38;;
19891;SDS011;10108;50.142;8.724;2023-02-22T04:28:09;20.10;;;11.20;;
19891;SDS011;10108;50.142;8.724;2023-02-22T04:30:41;20.48;;;11.95;;
19891;SDS011;10108;50.142;8.724;2023-02-22T04:33:11;17.27;;;11.82;;
19891;SDS011;10108;50.142;8.724;2023-02-22T04:35:38;20.13;;;12.70;;
19891;SDS011;10108;50.142;8.724;2023-02-22T04:38:05;19.42;;;12.90;;
19891;SDS011;10108;50.142;8.724;2023-02-22T04:40:33;17.17;;;12.60;;
19891;SDS011;10108;50.142;8.724;2023-02-22T04:43:00;18.27;;;12.68;;
19891;SDS011;10108;50.142;8.724;2023-02-22T04:45:26;20.88;;;13.80;;
19891;SDS011;10108;50.142;8.724;2023-02-22T04:47:53;21.15;;;13.75;;
19891;SDS011;10108;50.142;8.724;2023-02-22T04:50:19;19.17;;;13.52;;
19891;SDS011;10108;50.142;8.724;2023-02-22T04:52:45;18.75;;;13.40;;
19891;SDS011;10108;50.142;8.724;2023-02-22T04:55:12;18.10;;;12.60;;
19891;SDS011;10108;50.142;8.724;2023-02-22T04:57:38;20.63;;;13.55;;
19891;SDS011;10108;50.142;8.724;2023-02-22T05:00:05;18.23;;;12.27;;
19891;SDS011;10108;50.142;8.724;2023-02-22T05:02:32;18.25;;;12.75;;
19891;SDS011;10108;50.142;8.724;2023-02-22T05:04:58;17.67;;;12.80;;
19891;SDS011;10108;50.142;8.724;2023-02-22T05:07:24;16.60;;;12.30;;
19891;SDS011;10108;50.142;8.724;2023-02-22T05:09:50;18.50;;;12.82;;
19891;SDS011;10108;50.142;8.724;2023-02-22T05:12:16;17.08;;;12.27;;
19891;SDS011;10108;50.142;8.724;2023-02-22T05:14:43;17.73;;;12.43;;
19891;SDS011;10108;50.142;8.724;2023-02-22T05:17:09;16.80;;;12.48;;
19891;SDS011;10108;50.142;8.724;2023-02-22T05:19:35;18.42;;;12.63;;
19891;SDS011;10108;50.142;8.724;2023-02-22T05:22:01;19.15;;;12.55;;
19891;SDS011;10108;50.142;8.724;2023-02-22T05:24:28;18.75;;;12.73;;
19891;SDS011;10108;50.142;8.724;2023-02-22T05:26:54;16.35;;;11.95;;
19891;SDS011;10108;50.142;8.724;2023-02-22T05:29:21;16.83;;;11.80;;
19891;SDS011;10108;50.142;8.724;2023-02-22T05:31:47;16.67;;;11.70;;
19891;SDS011;10108;50.142;8.724;2023-02-22T05:34:14;15.73;;;11.70;;
19891;SDS011;10108;50.142;8.724;2023-02-22T05:36:40;14.07;;;10.75;;
19891;SDS011;10108;50.142;8.724;2023-02-22T05:39:07;14.80;;;11.15;;
19891;SDS011;10108;50.142;8.724;2023-02-22T05:41:33;15.05;;;11.13;;
19891;SDS011;10108;50.142;8.724;2023-02-22T05:44:00;13.82;;;10.75;;
19891;SDS011;10108;50.142;8.724;2023-02-22T05:46:27;14.20;;;10.95;;
19891;SDS011;10108;50.142;8.724;2023-02-22T05:48:54;13.98;;;10.82;;
19891;SDS011;10108;50.142;8.724;2023-02-22T05:51:20;15.95;;;10.75;;
19891;SDS011;10108;50.142;8.724;2023-02-22T05:53:47;15.80;;;10.90;;
19891;SDS011;10108;50.142;8.724;2023-02-22T05:56:34;15.05;;;10.75;;
19891;SDS011;10108;50.142;8.724;2023-02-22T05:59:01;14.68;;;11.18;;
19891;SDS011;10108;50.142;8.724;2023-02-22T06:01:27;15.75;;;11.32;;
19891;SDS011;10108;50.142;8.724;2023-02-22T06:03:54;16.90;;;11.63;;
19891;SDS011;10108;50.142;8.724;2023-02-22T06:06:20;14.77;;;10.45;;
19891;SDS011;10108;50.142;8.724;2023-02-22T06:08:46;15.63;;;10.90;;
19891;SDS011;10108;50.142;8.724;2023-02-22T06:11:13;14.02;;;10.88;;
19891;SDS011;10108;50.142;8.724;2023-02-22T06:13:39;13.70;;;10.65;;
19891;SDS011;10108;50.142;8.724;2023-02-22T06:16:06;14.73;;;11.25;;
19891;SDS011;10108;50.142;8.724;2023-02-22T06:18:32;13.73;;;11.00;;
19891;SDS011;10108;50.142;8.724;2023-02-22T06:20:59;16.15;;;10.93;;
19891;SDS011;10108;50.142;8.724;2023-02-22T06:23:26;15.20;;;11.45;;
19891;SDS011;10108;50.142;8.724;2023-02-22T06:25:52;14.38;;;10.98;;
19891;SDS011;10108;50.142;8.724;2023-02-22T06:28:18;14.20;;;10.50;;
19891;SDS011;10108;50.142;8.724;2023-02-22T06:30:45;13.95;;;10.40;;
19891;SDS011;10108;50.142;8.724;2023-02-22T06:33:11;14.73;;;10.75;;
19891;SDS011;10108;50.142;8.724;2023-02-22T06:35:38;14.15;;;10.38;;
19891;SDS011;10108;50.142;8.724;2023-02-22T06:38:04;15.43;;;10.60;;
19891;SDS011;10108;50.142;8.724;2023-02-22T06:40:31;14.55;;;10.18;;
19891;SDS011;10108;50.142;8.724;2023-02-22T06:42:57;13.57;;;9.85;;
19891;SDS011;10108;50.142;8.724;2023-02-22T06:45:24;13.20;;;9.90;;
19891;SDS011;10108;50.142;8.724;2023-02-22T06:47:50;13.70;;;9.68;;
19891;SDS011;10108;50.142;8.724;2023-02-22T06:50:27;14.23;;;9.52;;
19891;SDS011;10108;50.142;8.724;2023-02-22T06:52:54;14.07;;;10.45;;
19891;SDS011;10108;50.142;8.724;2023-02-22T06:55:22;12.60;;;9.40;;
19891;SDS011;10108;50.142;8.724;2023-02-22T06:57:50;11.90;;;9.15;;
19891;SDS011;10108;50.142;8.724;2023-02-22T07:00:17;13.43;;;10.10;;
19891;SDS011;10108;50.142;8.724;2023-02-22T07:02:44;14.40;;;9.90;;
19891;SDS011;10108;50.142;8.724;2023-02-22T07:05:11;16.02;;;10.02;;
19891;SDS011;10108;50.142;8.724;2023-02-22T07:07:38;14.40;;;10.43;;
19891;SDS011;10108;50.142;8.724;2023-02-22T07:10:06;12.82;;;10.00;;
19891;SDS011;10108;50.142;8.724;2023-02-22T07:12:33;31.20;;;16.60;;
19891;SDS011;10108;50.142;8.724;2023-02-22T07:14:59;34.50;;;18.23;;
19891;SDS011;10108;50.142;8.724;2023-02-22T07:17:26;35.33;;;18.17;;
19891;SDS011;10108;50.142;8.724;2023-02-22T07:19:52;39.63;;;18.45;;
19891;SDS011;10108;50.142;8.724;2023-02-22T07:22:19;25.10;;;14.73;;
19891;SDS011;10108;50.142;8.724;2023-02-22T07:24:45;20.10;;;12.23;;
19891;SDS011;10108;50.142;8.724;2023-02-22T07:27:12;17.60;;;11.20;;
19891;SDS011;10108;50.142;8.724;2023-02-22T07:29:41;13.57;;;10.30;;
19891;SDS011;10108;50.142;8.724;2023-02-22T07:32:08;14.23;;;10.60;;
19891;SDS011;10108;50.142;8.724;2023-02-22T07:34:34;25.83;;;14.55;;
19891;SDS011;10108;50.142;8.724;2023-02-22T07:37:01;18.63;;;12.88;;
19891;SDS011;10108;50.142;8.724;2023-02-22T07:39:28;14.18;;;10.10;;
19891;SDS011;10108;50.142;8.724;2023-02-22T07:41:54;15.77;;;10.70;;
19891;SDS011;10108;50.142;8.724;2023-02-22T07:44:22;15.68;;;10.32;;
19891;SDS011;10108;50.142;8.724;2023-02-22T07:46:48;14.70;;;10.77;;
19891;SDS011;10108;50.142;8.724;2023-02-22T07:49:15;14.65;;;10.15;;
19891;SDS011;10108;50.142;8.724;2023-02-22T07:51:41;13.95;;;10.40;;
19891;SDS011;10108;50.142;8.724;2023-02-22T07:54:08;14.15;;;9.95;;
19891;SDS011;10108;50.142;8.724;2023-02-22T07:56:34;14.18;;;10.02;;
19891;SDS011;10108;50.142;8.724;2023-02-22T07:59:00;14.43;;;9.82;;
19891;SDS011;10108;50.142;8.724;2023-02-22T08:01:27;15.05;;;10.07;;
19891;SDS011;10108;50.142;8.724;2023-02-22T08:03:53;13.52;;;9.48;;
19891;SDS011;10108;50.142;8.724;2023-02-22T08:06:20;13.48;;;9.88;;
19891;SDS011;10108;50.142;8.724;2023-02-22T08:08:50;17.15;;;10.40;;
19891;SDS011;10108;50.142;8.724;2023-02-22T08:11:16;16.10;;;10.15;;
19891;SDS011;10108;50.142;8.724;2023-02-22T08:13:43;13.30;;;9.88;;
19891;SDS011;10108;50.142;8.724;2023-02-22T08:16:09;15.50;;;9.98;;
19891;SDS011;10108;50.142;8.724;2023-02-22T08:18:35;14.90;;;10.35;;
19891;SDS011;10108;50.142;8.724;2023-02-22T08:21:03;13.65;;;9.93;;
19891;SDS011;10108;50.142;8.724;2023-02-22T08:23:29;15.32;;;10.52;;
19891;SDS011;10108;50.142;8.724;2023-02-22T08:26:02;15.82;;;10.55;;
19891;SDS011;10108;50.142;8.724;2023-02-22T08:28:29;14.95;;;10.60;;
19891;SDS011;10108;50.142;8.724;2023-02-22T08:30:56;16.90;;;10.88;;
19891;SDS011;10108;50.142;8.724;2023-02-22T08:33:22;15.45;;;11.18;;
19891;SDS011;10108;50.142;8.724;2023-02-22T08:35:49;14.35;;;10.73;;
19891;SDS011;10108;50.142;8.724;2023-02-22T08:38:18;16.77;;;10.63;;
19891;SDS011;10108;50.142;8.724;2023-02-22T08:40:46;16.23;;;10.45;;
19891;SDS011;10108;50.142;8.724;2023-02-22T08:43:12;16.65;;;11.45;;
19891;SDS011;10108;50.142;8.724;2023-02-22T08:45:39;19.13;;;11.68;;
19891;SDS011;10108;50.142;8.724;2023-02-22T08:48:05;17.02;;;11.40;;
19891;SDS011;10108;50.142;8.724;2023-02-22T08:50:32;14.93;;;11.23;;
19891;SDS011;10108;50.142;8.724;2023-02-22T08:52:59;15.98;;;11.05;;
19891;SDS011;10108;50.142;8.724;2023-02-22T08:55:27;17.00;;;11.95;;
19891;SDS011;10108;50.142;8.724;2023-02-22T08:57:54;17.45;;;12.23;;
19891;SDS011;10108;50.142;8.724;2023-02-22T09:00:21;17.40;;;12.13;;
19891;SDS011;10108;50.142;8.724;2023-02-22T09:02:51;20.10;;;12.90;;
19891;SDS011;10108;50.142;8.724;2023-02-22T09:05:18;23.95;;;13.30;;
19891;SDS011;10108;50.142;8.724;2023-02-22T09:07:44;23.13;;;13.65;;
19891;SDS011;10108;50.142;8.724;2023-02-22T09:10:14;23.02;;;13.45;;
19891;SDS011;10108;50.142;8.724;2023-02-22T09:12:41;23.10;;;13.88;;
19891;SDS011;10108;50.142;8.724;2023-02-22T09:15:08;20.75;;;13.73;;
19891;SDS011;10108;50.142;8.724;2023-02-22T09:17:35;25.02;;;14.75;;
19891;SDS011;10108;50.142;8.724;2023-02-22T09:20:05;21.88;;;13.13;;
19891;SDS011;10108;50.142;8.724;2023-02-22T09:22:32;20.80;;;13.23;;
19891;SDS011;10108;50.142;8.724;2023-02-22T09:24:58;22.67;;;13.95;;
19891;SDS011;10108;50.142;8.724;2023-02-22T09:27:25;24.65;;;13.23;;
19891;SDS011;10108;50.142;8.724;2023-02-22T09:29:53;20.58;;;13.43;;
19891;SDS011;10108;50.142;8.724;2023-02-22T09:32:21;20.58;;;13.00;;
19891;SDS011;10108;50.142;8.724;2023-02-22T09:34:47;20.20;;;13.18;;
19891;SDS011;10108;50.142;8.724;2023-02-22T09:37:16;24.30;;;13.75;;
19891;SDS011;10108;50.142;8.724;2023-02-22T09:39:43;22.33;;;14.13;;
19891;SDS011;10108;50.142;8.724;2023-02-22T09:44:43;26.48;;;14.25;;
19891;SDS011;10108;50.142;8.724;2023-02-22T09:47:16;25.77;;;14.90;;
19891;SDS011;10108;50.142;8.724;2023-02-22T09:49:57;29.73;;;15.70;;
19891;SDS011;10108;50.142;8.724;2023-02-22T09:52:27;33.63;;;19.02;;
19891;SDS011;10108;50.142;8.724;2023-02-22T09:55:30;37.10;;;20.27;;
19891;SDS011;10108;50.142;8.724;2023-02-22T09:57:50;38.85;;;20.08;;
19891;SDS011;10108;50.142;8.724;2023-02-22T10:00:20;37.97;;;20.27;;
19891;SDS011;10108;50.142;8.724;2023-02-22T10:05:23;40.25;;;21.45;;
19891;SDS011;10108;50.142;8.724;2023-02-22T10:07:53;40.42;;;22.88;;
19891;SDS011;10108;50.142;8.724;2023-02-22T10:10:53;43.47;;;23.30;;
19891;SDS011;10108;50.142;8.724;2023-02-22T10:13:22;41.40;;;23.88;;
19891;SDS011;10108;50.142;8.724;2023-02-22T10:23:41;44.08;;;24.33;;
19891;SDS011;10108;50.142;8.724;2023-02-22T10:28:38;43.10;;;24.63;;
19891;SDS011;10108;50.142;8.724;2023-02-22T10:31:07;43.92;;;25.48;;
19891;SDS011;10108;50.142;8.724;2023-02-22T10:33:37;47.00;;;27.10;;
19891;SDS011;10108;50.142;8.724;2023-02-22T10:36:04;38.67;;;24.33;;
19891;SDS011;10108;50.142;8.724;2023-02-22T10:38:38;46.50;;;25.77;;
19891;SDS011;10108;50.142;8.724;2023-02-22T10:43:37;37.63;;;23.08;;
19891;SDS011;10108;50.142;8.724;2023-02-22T10:46:06;38.75;;;22.92;;
19891;SDS011;10108;50.142;8.724;2023-02-22T10:48:37;41.45;;;23.40;;
19891;SDS011;10108;50.142;8.724;2023-02-22T10:51:07;42.10;;;24.02;;
19891;SDS011;10108;50.142;8.724;2023-02-22T10:53:35;36.47;;;22.10;;
19891;SDS011;10108;50.142;8.724;2023-02-22T10:56:18;41.28;;;22.02;;
19891;SDS011;10108;50.142;8.724;2023-02-22T10:58:48;38.13;;;22.75;;
19891;SDS011;10108;50.142;8.724;2023-02-22T11:01:22;36.95;;;23.40;;
19891;SDS011;10108;50.142;8.724;2023-02-22T11:03:57;40.47;;;24.42;;
19891;SDS011;10108;50.142;8.724;2023-02-22T11:06:24;39.45;;;23.20;;
19891;SDS011;10108;50.142;8.724;2023-02-22T11:09:00;37.65;;;21.98;;
19891;SDS011;10108;50.142;8.724;2023-02-22T11:11:29;36.47;;;20.67;;
19891;SDS011;10108;50.142;8.724;2023-02-22T11:13:55;38.40;;;22.13;;
19891;SDS011;10108;50.142;8.724;2023-02-22T11:16:27;36.47;;;21.80;;
19891;SDS011;10108;50.142;8.724;2023-02-22T11:21:32;31.60;;;19.17;;
19891;SDS011;10108;50.142;8.724;2023-02-22T11:24:16;37.35;;;20.60;;
19891;SDS011;10108;50.142;8.724;2023-02-22T11:26:53;32.35;;;19.27;;
19891;SDS011;10108;50.142;8.724;2023-02-22T11:29:25;38.22;;;21.50;;
19891;SDS011;10108;50.142;8.724;2023-02-22T11:31:52;32.25;;;20.02;;
19891;SDS011;10108;50.142;8.724;2023-02-22T11:34:39;35.60;;;20.35;;
19891;SDS011;10108;50.142;8.724;2023-02-22T11:39:42;34.00;;;20.35;;
19891;SDS011;10108;50.142;8.724;2023-02-22T11:42:25;41.25;;;21.08;;
19891;SDS011;10108;50.142;8.724;2023-02-22T11:47:47;34.35;;;20.60;;
19891;SDS011;10108;50.142;8.724;2023-02-22T11:50:21;39.88;;;22.20;;
19891;SDS011;10108;50.142;8.724;2023-02-22T11:52:50;41.03;;;21.33;;
19891;SDS011;10108;50.142;8.724;2023-02-22T11:55:22;37.10;;;21.45;;
19891;SDS011;10108;50.142;8.724;2023-02-22T11:58:09;35.40;;;20.92;;
19891;SDS011;10108;50.142;8.724;2023-02-22T12:09:10;34.03;;;20.48;;
19891;SDS011;10108;50.142;8.724;2023-02-22T12:17:13;39.67;;;19.10;;
19891;SDS011;10108;50.142;8.724;2023-02-22T12:20:19;27.88;;;18.52;;
19891;SDS011;10108;50.142;8.724;2023-02-22T12:25:38;31.20;;;18.00;;
19891;SDS011;10108;50.142;8.724;2023-02-22T12:28:37;31.60;;;19.67;;
19891;SDS011;10108;50.142;8.724;2023-02-22T12:31:31;28.67;;;16.95;;
19891;SDS011;10108;50.142;8.724;2023-02-22T12:36:50;28.48;;;17.88;;
19891;SDS011;10108;50.142;8.724;2023-02-22T12:42:15;28.67;;;18.13;;
19891;SDS011;10108;50.142;8.724;2023-02-22T12:44:46;25.63;;;16.75;;
19891;SDS011;10108;50.142;8.724;2023-02-22T12:47:21;32.13;;;18.83;;
19891;SDS011;10108;50.142;8.724;2023-02-22T12:49:58;32.05;;;18.83;;
19891;SDS011;10108;50.142;8.724;2023-02-22T12:52:41;32.08;;;18.88;;
19891;SDS011;10108;50.142;8.724;2023-02-22T12:55:20;30.85;;;18.70;;
19891;SDS011;10108;50.142;8.724;2023-02-22T13:03:26;32.45;;;18.38;;
19891;SDS011;10108;50.142;8.724;2023-02-22T13:08:40;29.08;;;18.05;;
19891;SDS011;10108;50.142;8.724;2023-02-22T13:11:25;28.55;;;18.50;;
19891;SDS011;10108;50.142;8.724;2023-02-22T13:14:04;30.25;;;17.75;;
19891;SDS011;10108;50.142;8.724;2023-02-22T13:17:00;26.15;;;17.58;;
19891;SDS011;10108;50.142;8.724;2023-02-22T13:20:00;30.05;;;17.70;;
19891;SDS011;10108;50.142;8.724;2023-02-22T13:22:41;29.73;;;17.63;;
19891;SDS011;10108;50.142;8.724;2023-02-22T13:34:07;25.05;;;16.00;;
19891;SDS011;10108;50.142;8.724;2023-02-22T13:37:07;24.13;;;15.75;;
19891;SDS011;10108;50.142;8.724;2023-02-22T13:42:45;25.35;;;14.68;;
19891;SDS011;10108;50.142;8.724;2023-02-22T13:45:33;23.55;;;14.68;;
19891;SDS011;10108;50.142;8.724;2023-02-22T13:54:23;21.95;;;14.38;;
19891;SDS011;10108;50.142;8.724;2023-02-22T14:08:37;22.95;;;14.93;;
19891;SDS011;10108;50.142;8.724;2023-02-22T14:11:02;25.38;;;15.07;;
19891;SDS011;10108;50.142;8.724;2023-02-22T14:16:29;25.08;;;13.65;;
19891;SDS011;10108;50.142;8.724;2023-02-22T14:18:59;19.42;;;12.32;;
19891;SDS011;10108;50.142;8.724;2023-02-22T14:21:31;24.52;;;14.45;;
19891;SDS011;10108;50.142;8.724;2023-02-22T14:24:20;24.98;;;13.38;;
19891;SDS011;10108;50.142;8.724;2023-02-22T14:27:19;22.42;;;14.13;;
19891;SDS011;10108;50.142;8.724;2023-02-22T14:29:49;25.13;;;14.20;;
19891;SDS011;10108;50.142;8.724;2023-02-22T14:32:20;21.15;;;14.20;;
19891;SDS011;10108;50.142;8.724;2023-02-22T14:34:57;20.70;;;13.63;;
19891;SDS011;10108;50.142;8.724;2023-02-22T14:37:29;23.80;;;13.95;;
19891;SDS011;10108;50.142;8.724;2023-02-22T14:40:07;19.60;;;12.05;;
19891;SDS011;10108;50.142;8.724;2023-02-22T14:42:49;19.95;;;12.43;;
19891;SDS011;10108;50.142;8.724;2023-02-22T14:45:31;20.60;;;13.40;;
19891;SDS011;10108;50.142;8.724;2023-02-22T14:50:46;20.70;;;12.23;;
19891;SDS011;10108;50.142;8.724;2023-02-22T14:53:25;20.58;;;12.85;;
19891;SDS011;10108;50.142;8.724;2023-02-22T14:56:04;21.85;;;13.20;;
19891;SDS011;10108;50.142;8.724;2023-02-22T15:03:47;18.27;;;12.27;;
19891;SDS011;10108;50.142;8.724;2023-02-22T15:06:20;20.80;;;13.30;;
19891;SDS011;10108;50.142;8.724;2023-02-22T15:08:48;21.42;;;13.65;;
19891;SDS011;10108;50.142;8.724;2023-02-22T15:12:08;20.25;;;11.95;;
19891;SDS011;10108;50.142;8.724;2023-02-22T15:14:42;20.20;;;13.43;;
19891;SDS011;10108;50.142;8.724;2023-02-22T15:17:19;22.75;;;12.98;;
19891;SDS011;10108;50.142;8.724;2023-02-22T15:19:49;21.85;;;13.48;;
19891;SDS011;10108;50.142;8.724;2023-02-22T15:22:26;20.10;;;12.73;;
19891;SDS011;10108;50.142;8.724;2023-02-22T15:25:00;20.17;;;13.45;;
19891;SDS011;10108;50.142;8.724;2023-02-22T15:27:30;22.55;;;13.80;;
19891;SDS011;10108;50.142;8.724;2023-02-22T15:30:34;21.60;;;14.00;;
19891;SDS011;10108;50.142;8.724;2023-02-22T15:32:54;24.50;;;15.05;;
19891;SDS011;10108;50.142;8.724;2023-02-22T15:35:27;22.85;;;13.95;;
19891;SDS011;10108;50.142;8.724;2023-02-22T15:37:59;29.90;;;15.75;;
19891;SDS011;10108;50.142;8.724;2023-02-22T15:40:27;26.42;;;15.13;;
19891;SDS011;10108;50.142;8.724;2023-02-22T15:42:59;25.15;;;15.07;;
19891;SDS011;10108;50.142;8.724;2023-02-22T15:45:29;25.17;;;15.57;;
19891;SDS011;10108;50.142;8.724;2023-02-22T15:47:56;24.90;;;15.55;;
19891;SDS011;10108;50.142;8.724;2023-02-22T15:52:54;24.17;;;15.65;;
19891;SDS011;10108;50.142;8.724;2023-02-22T15:55:24;22.98;;;15.20;;
19891;SDS011;10108;50.142;8.724;2023-02-22T16:00:40;23.23;;;14.13;;
19891;SDS011;10108;50.142;8.724;2023-02-22T16:03:18;26.15;;;15.93;;
19891;SDS011;10108;50.142;8.724;2023-02-22T16:05:55;26.70;;;15.30;;
19891;SDS011;10108;50.142;8.724;2023-02-22T16:08:32;26.08;;;15.55;;
19891;SDS011;10108;50.142;8.724;2023-02-22T16:11:13;25.13;;;14.55;;
19891;SDS011;10108;50.142;8.724;2023-02-22T16:13:50;25.27;;;15.20;;
19891;SDS011;10108;50.142;8.724;2023-02-22T16:18:47;27.50;;;15.48;;
19891;SDS011;10108;50.142;8.724;2023-02-22T16:21:15;28.67;;;16.30;;
19891;SDS011;10108;50.142;8.724;2023-02-22T16:28:53;27.15;;;16.98;;
19891;SDS011;10108;50.142;8.724;2023-02-22T16:31:23;27.88;;;17.15;;
19891;SDS011;10108;50.142;8.724;2023-02-22T16:34:05;28.42;;;18.20;;
19891;SDS011;10108;50.142;8.724;2023-02-22T16:36:39;31.45;;;17.63;;
19891;SDS011;10108;50.142;8.724;2023-02-22T16:39:10;36.45;;;19.42;;
19891;SDS011;10108;50.142;8.724;2023-02-22T16:41:43;35.95;;;19.52;;
19891;SDS011;10108;50.142;8.724;2023-02-22T16:44:11;33.03;;;19.60;;
19891;SDS011;10108;50.142;8.724;2023-02-22T16:46:38;33.75;;;19.10;;
19891;SDS011;10108;50.142;8.724;2023-02-22T16:49:08;32.92;;;19.90;;
19891;SDS011;10108;50.142;8.724;2023-02-22T16:51:43;32.50;;;20.52;;
19891;SDS011;10108;50.142;8.724;2023-02-22T16:54:16;32.95;;;19.42;;
19891;SDS011;10108;50.142;8.724;2023-02-22T16:56:47;32.53;;;18.92;;
19891;SDS011;10108;50.142;8.724;2023-02-22T16:59:14;33.60;;;19.05;;
19891;SDS011;10108;50.142;8.724;2023-02-22T17:01:41;31.40;;;18.63;;
19891;SDS011;10108;50.142;8.724;2023-02-22T17:04:15;34.90;;;19.55;;
19891;SDS011;10108;50.142;8.724;2023-02-22T17:06:43;34.15;;;18.75;;
19891;SDS011;10108;50.142;8.724;2023-02-22T17:09:10;36.30;;;20.27;;